Thunderstorms From: 22-05-2018 15:00 Until: 23-05-2018 15:00 warning for: Thunderstorms Level: Yellow info button

Although rather usual in this region, locally or potentially dangerous phenomena are expected. (such as local winds, summer thunderstorms, rising streams or high waves) Be aware and pay attention to the latest weather updates, especially if you carry out activities exposed to weather or close to a stream or shoreline. 


Meteo18 Weather Cam more information Meteo18 Weather Cam


warning for Thunderstorms more information blitzortung!


Rain radar more information rain snow radar


Visit our other weather sites:

Template documentation
and downloads

And another site



Weather Underground History page Text

Daily Summary for August 28, 2017 Units:  Both    English   Metric
« Previous Day
Next Day »
Daily Weekly Monthly Yearly Custom
  High: Low: Average:
Temperature: TemperatureC °F /  -17.8 °C 21.6 °F /  -5.8 °C 26.5 °F /  -3.1 °C
Dew Point: DewpointC °F /  -17.8 °C 16.3 °F /  -8.7 °C 18 °F /  -7.8 °C
Humidity: Humidity % 42 % 61 %
Wind Speed: WindSpeedKMH mph /  0 km/h - 5.2 mph /  8.4 km/h
Wind Gust: WindSpeedGustKMH mph /  0 km/h - -
Wind:- - East
Pressure: PressurehPa in /  0 hPa 1015.5 in /  34384.8 hPa -
Precipitation: 0.0 in /  0 mm    
Historical Graphs
 
 
Tabular Data for August 28, 2017
Time Temperature Dew Point Pressure Wind Wind Speed Wind Gust Humidity Rainfall Rate (Hourly)
TemperatureC °F /  -17.8 °C DewpointC °F /  -17.8 °C PressurehPa in /  0 hPa Calm     Humidity % HourlyPrecipMM in /  0 mm
00:02 23.7 °F /  -4.6 °C 19.2 °F /  -7.1 °C 1017.8 in /  34462.7 hPa NE 4.8 mph /  7.7 km/h 11.3 mph /  18.2 km/h 76 % 0.0 in /  0 mm
00:12 23.6 °F /  -4.7 °C 19.1 °F /  -7.2 °C 1017.8 in /  34462.7 hPa Calm   12.9 mph /  20.8 km/h 76 % 0.0 in /  0 mm
00:17 23.6 °F /  -4.7 °C 19.1 °F /  -7.2 °C 1017.8 in /  34462.7 hPa NE 3.2 mph /  5.1 km/h 12.9 mph /  20.8 km/h 76 % 0.0 in /  0 mm
00:22 23.5 °F /  -4.7 °C 19.0 °F /  -7.2 °C 1017.8 in /  34462.7 hPa North 1.6 mph /  2.6 km/h 12.9 mph /  20.8 km/h 76 % 0.0 in /  0 mm
00:32 23.4 °F /  -4.8 °C 18.9 °F /  -7.3 °C 1017.8 in /  34462.7 hPa NE 1.6 mph /  2.6 km/h 8.0 mph /  12.9 km/h 76 % 0.0 in /  0 mm
00:42 23.3 °F /  -4.8 °C 18.8 °F /  -7.3 °C 1017.8 in /  34462.7 hPa NE 1.6 mph /  2.6 km/h 9.7 mph /  15.6 km/h 76 % 0.0 in /  0 mm
00:47 23.2 °F /  -4.9 °C 18.7 °F /  -7.4 °C 1017.8 in /  34462.7 hPa NNE 1.6 mph /  2.6 km/h 9.7 mph /  15.6 km/h 76 % 0.0 in /  0 mm
00:57 23.0 °F /  -5 °C 18.7 °F /  -7.4 °C 1017.8 in /  34462.7 hPa Calm   9.7 mph /  15.6 km/h 77 % 0.0 in /  0 mm
01:02 23.0 °F /  -5 °C 18.7 °F /  -7.4 °C 1017.8 in /  34462.7 hPa NE 3.2 mph /  5.1 km/h 9.7 mph /  15.6 km/h 77 % 0.0 in /  0 mm
01:12 23.1 °F /  -4.9 °C 18.6 °F /  -7.4 °C 1017.8 in /  34462.7 hPa NNE 4.8 mph /  7.7 km/h 11.3 mph /  18.2 km/h 76 % 0.0 in /  0 mm
01:17 23.1 °F /  -4.9 °C 18.6 °F /  -7.4 °C 1017.8 in /  34462.7 hPa Calm   11.3 mph /  18.2 km/h 76 % 0.0 in /  0 mm
01:27 22.9 °F /  -5.1 °C 18.7 °F /  -7.4 °C 1017.8 in /  34462.7 hPa Calm   8.0 mph /  12.9 km/h 77 % 0.0 in /  0 mm
01:32 22.9 °F /  -5.1 °C 18.7 °F /  -7.4 °C 1017.8 in /  34462.7 hPa Calm   8.0 mph /  12.9 km/h 77 % 0.0 in /  0 mm
01:37 22.8 °F /  -5.1 °C 18.6 °F /  -7.4 °C 1017.8 in /  34462.7 hPa North 1.6 mph /  2.6 km/h 8.0 mph /  12.9 km/h 77 % 0.0 in /  0 mm
01:47 22.8 °F /  -5.1 °C 18.6 °F /  -7.4 °C 1017.8 in /  34462.7 hPa Calm   6.4 mph /  10.3 km/h 77 % 0.0 in /  0 mm
01:52 22.9 °F /  -5.1 °C 18.7 °F /  -7.4 °C 1017.8 in /  34462.7 hPa NNW 3.2 mph /  5.1 km/h 6.4 mph /  10.3 km/h 77 % 0.0 in /  0 mm
02:02 22.9 °F /  -5.1 °C 18.7 °F /  -7.4 °C 1017.5 in /  34452.6 hPa Calm   6.4 mph /  10.3 km/h 77 % 0.0 in /  0 mm
02:12 22.7 °F /  -5.2 °C 18.5 °F /  -7.5 °C 1017.5 in /  34452.6 hPa Calm   4.8 mph /  7.7 km/h 77 % 0.0 in /  0 mm
02:17 22.6 °F /  -5.2 °C 18.6 °F /  -7.4 °C 1017.5 in /  34452.6 hPa Calm   4.8 mph /  7.7 km/h 78 % 0.0 in /  0 mm
02:22 22.5 °F /  -5.3 °C 18.5 °F /  -7.5 °C 1017.5 in /  34452.6 hPa Calm   3.2 mph /  5.1 km/h 78 % 0.0 in /  0 mm
02:32 22.4 °F /  -5.3 °C 18.4 °F /  -7.6 °C 1017.5 in /  34452.6 hPa Calm   1.6 mph /  2.6 km/h 78 % 0.0 in /  0 mm
02:37 22.4 °F /  -5.3 °C 18.4 °F /  -7.6 °C 1017.5 in /  34452.6 hPa North 4.8 mph /  7.7 km/h 4.8 mph /  7.7 km/h 78 % 0.0 in /  0 mm
02:42 22.4 °F /  -5.3 °C 18.4 °F /  -7.6 °C 1017.5 in /  34452.6 hPa Calm   3.2 mph /  5.1 km/h 78 % 0.0 in /  0 mm
02:47 22.4 °F /  -5.3 °C 18.4 °F /  -7.6 °C 1017.5 in /  34452.6 hPa North 3.2 mph /  5.1 km/h 6.4 mph /  10.3 km/h 78 % 0.0 in /  0 mm
02:52 22.4 °F /  -5.3 °C 18.4 °F /  -7.6 °C 1017.5 in /  34452.6 hPa North 6.4 mph /  10.3 km/h 6.4 mph /  10.3 km/h 78 % 0.0 in /  0 mm
02:57 22.4 °F /  -5.3 °C 18.4 °F /  -7.6 °C 1017.2 in /  34442.4 hPa North 4.8 mph /  7.7 km/h 6.4 mph /  10.3 km/h 78 % 0.0 in /  0 mm
03:02 22.4 °F /  -5.3 °C 18.4 °F /  -7.6 °C 1017.5 in /  34452.6 hPa NNE 1.6 mph /  2.6 km/h 6.4 mph /  10.3 km/h 78 % 0.0 in /  0 mm
03:12 22.4 °F /  -5.3 °C 18.4 °F /  -7.6 °C 1017.2 in /  34442.4 hPa Calm   8.0 mph /  12.9 km/h 78 % 0.0 in /  0 mm
03:17 22.3 °F /  -5.4 °C 18.3 °F /  -7.6 °C 1017.2 in /  34442.4 hPa NNW 1.6 mph /  2.6 km/h 8.0 mph /  12.9 km/h 78 % 0.0 in /  0 mm
03:22 22.4 °F /  -5.3 °C 18.4 °F /  -7.6 °C 1017.2 in /  34442.4 hPa NNE 3.2 mph /  5.1 km/h 4.8 mph /  7.7 km/h 78 % 0.0 in /  0 mm
03:27 22.4 °F /  -5.3 °C 18.4 °F /  -7.6 °C 1017.2 in /  34442.4 hPa North 4.8 mph /  7.7 km/h 6.4 mph /  10.3 km/h 78 % 0.0 in /  0 mm
03:32 22.4 °F /  -5.3 °C 18.4 °F /  -7.6 °C 1017.2 in /  34442.4 hPa ENE 3.2 mph /  5.1 km/h 6.4 mph /  10.3 km/h 78 % 0.0 in /  0 mm
03:37 22.4 °F /  -5.3 °C 18.4 °F /  -7.6 °C 1017.2 in /  34442.4 hPa North 8.0 mph /  12.9 km/h 14.5 mph /  23.3 km/h 78 % 0.0 in /  0 mm
03:42 22.4 °F /  -5.3 °C 18.4 °F /  -7.6 °C 1016.8 in /  34428.8 hPa NNW 4.8 mph /  7.7 km/h 14.5 mph /  23.3 km/h 78 % 0.0 in /  0 mm
03:52 22.4 °F /  -5.3 °C 18.4 °F /  -7.6 °C 1016.8 in /  34428.8 hPa NE 4.8 mph /  7.7 km/h 14.5 mph /  23.3 km/h 78 % 0.0 in /  0 mm
03:57 22.4 °F /  -5.3 °C 18.4 °F /  -7.6 °C 1016.8 in /  34428.8 hPa ENE 4.8 mph /  7.7 km/h 9.7 mph /  15.6 km/h 78 % 0.0 in /  0 mm
04:02 22.4 °F /  -5.3 °C 18.4 °F /  -7.6 °C 1016.8 in /  34428.8 hPa NNW 4.8 mph /  7.7 km/h 9.7 mph /  15.6 km/h 78 % 0.0 in /  0 mm
04:12 22.3 °F /  -5.4 °C 18.3 °F /  -7.6 °C 1016.8 in /  34428.8 hPa North 1.6 mph /  2.6 km/h 9.7 mph /  15.6 km/h 78 % 0.0 in /  0 mm
04:17 22.3 °F /  -5.4 °C 18.3 °F /  -7.6 °C 1016.8 in /  34428.8 hPa NNW 4.8 mph /  7.7 km/h 8.0 mph /  12.9 km/h 78 % 0.0 in /  0 mm
04:22 22.3 °F /  -5.4 °C 18.3 °F /  -7.6 °C 1016.8 in /  34428.8 hPa North 4.8 mph /  7.7 km/h 9.7 mph /  15.6 km/h 78 % 0.0 in /  0 mm
04:32 22.2 °F /  -5.4 °C 18.2 °F /  -7.7 °C 1016.8 in /  34428.8 hPa NNE 1.6 mph /  2.6 km/h 11.3 mph /  18.2 km/h 78 % 0.0 in /  0 mm
04:37 22.2 °F /  -5.4 °C 18.2 °F /  -7.7 °C 1016.8 in /  34428.8 hPa NE 1.6 mph /  2.6 km/h 8.0 mph /  12.9 km/h 78 % 0.0 in /  0 mm
04:42 22.1 °F /  -5.5 °C 18.1 °F /  -7.7 °C 1016.8 in /  34428.8 hPa ENE 1.6 mph /  2.6 km/h 6.4 mph /  10.3 km/h 78 % 0.0 in /  0 mm
04:47 22.1 °F /  -5.5 °C 18.3 °F /  -7.6 °C 1016.8 in /  34428.8 hPa NNE 3.2 mph /  5.1 km/h 6.4 mph /  10.3 km/h 79 % 0.0 in /  0 mm
05:02 22.2 °F /  -5.4 °C 18.2 °F /  -7.7 °C 1016.5 in /  34418.7 hPa NNW 3.2 mph /  5.1 km/h 8.0 mph /  12.9 km/h 78 % 0.0 in /  0 mm
05:12 22.0 °F /  -5.6 °C 18.0 °F /  -7.8 °C 1016.5 in /  34418.7 hPa NE 1.6 mph /  2.6 km/h 8.0 mph /  12.9 km/h 78 % 0.0 in /  0 mm
05:17 22.1 °F /  -5.5 °C 18.1 °F /  -7.7 °C 1016.5 in /  34418.7 hPa NNE 4.8 mph /  7.7 km/h 8.0 mph /  12.9 km/h 78 % 0.0 in /  0 mm
05:22 22.1 °F /  -5.5 °C 18.1 °F /  -7.7 °C 1016.5 in /  34418.7 hPa NNE 3.2 mph /  5.1 km/h 11.3 mph /  18.2 km/h 78 % 0.0 in /  0 mm
05:27 22.1 °F /  -5.5 °C 18.1 °F /  -7.7 °C 1016.5 in /  34418.7 hPa NE 4.8 mph /  7.7 km/h 11.3 mph /  18.2 km/h 78 % 0.0 in /  0 mm
05:32 22.0 °F /  -5.6 °C 18.0 °F /  -7.8 °C 1016.5 in /  34418.7 hPa NE 3.2 mph /  5.1 km/h 11.3 mph /  18.2 km/h 78 % 0.0 in /  0 mm
05:42 21.7 °F /  -5.7 °C 17.9 °F /  -7.8 °C 1016.5 in /  34418.7 hPa Calm   4.8 mph /  7.7 km/h 79 % 0.0 in /  0 mm
05:47 21.6 °F /  -5.8 °C 17.8 °F /  -7.9 °C 1016.1 in /  34405.1 hPa Calm   4.8 mph /  7.7 km/h 79 % 0.0 in /  0 mm
05:57 21.7 °F /  -5.7 °C 17.7 °F /  -7.9 °C 1016.5 in /  34418.7 hPa NNE 1.6 mph /  2.6 km/h 4.8 mph /  7.7 km/h 78 % 0.0 in /  0 mm
06:02 21.8 °F /  -5.7 °C 17.8 °F /  -7.9 °C 1016.5 in /  34418.7 hPa Calm   6.4 mph /  10.3 km/h 78 % 0.0 in /  0 mm
06:12 22.0 °F /  -5.6 °C 17.8 °F /  -7.9 °C 1016.5 in /  34418.7 hPa NNE 1.6 mph /  2.6 km/h 4.8 mph /  7.7 km/h 77 % 0.0 in /  0 mm
06:17 22.1 °F /  -5.5 °C 17.7 °F /  -7.9 °C 1016.5 in /  34418.7 hPa NNE 4.8 mph /  7.7 km/h 4.8 mph /  7.7 km/h 76 % 0.0 in /  0 mm
06:27 22.1 °F /  -5.5 °C 17.7 °F /  -7.9 °C 1016.5 in /  34418.7 hPa NNE 1.6 mph /  2.6 km/h 4.8 mph /  7.7 km/h 76 % 0.0 in /  0 mm
06:32 22.1 °F /  -5.5 °C 17.7 °F /  -7.9 °C 1016.5 in /  34418.7 hPa North 3.2 mph /  5.1 km/h 4.8 mph /  7.7 km/h 76 % 0.0 in /  0 mm
06:42 22.1 °F /  -5.5 °C 17.9 °F /  -7.8 °C 1016.5 in /  34418.7 hPa NNW 1.6 mph /  2.6 km/h 6.4 mph /  10.3 km/h 77 % 0.0 in /  0 mm
06:47 22.0 °F /  -5.6 °C 17.8 °F /  -7.9 °C 1016.5 in /  34418.7 hPa Calm   6.4 mph /  10.3 km/h 77 % 0.0 in /  0 mm
06:52 21.9 °F /  -5.6 °C 17.7 °F /  -7.9 °C 1016.5 in /  34418.7 hPa Calm   6.4 mph /  10.3 km/h 77 % 0.0 in /  0 mm
07:02 21.9 °F /  -5.6 °C 17.7 °F /  -7.9 °C 1016.5 in /  34418.7 hPa Calm   6.4 mph /  10.3 km/h 77 % 0.0 in /  0 mm
07:12 21.9 °F /  -5.6 °C 17.7 °F /  -7.9 °C 1016.8 in /  34428.8 hPa Calm   3.2 mph /  5.1 km/h 77 % 0.0 in /  0 mm
07:17 22.0 °F /  -5.6 °C 17.6 °F /  -8 °C 1016.8 in /  34428.8 hPa Calm   3.2 mph /  5.1 km/h 76 % 0.0 in /  0 mm
07:22 21.9 °F /  -5.6 °C 17.7 °F /  -7.9 °C 1016.8 in /  34428.8 hPa Calm     77 % 0.0 in /  0 mm
07:32 22.0 °F /  -5.6 °C 17.8 °F /  -7.9 °C 1016.8 in /  34428.8 hPa NNE 3.2 mph /  5.1 km/h 6.4 mph /  10.3 km/h 77 % 0.0 in /  0 mm
07:42 21.9 °F /  -5.6 °C 17.9 °F /  -7.8 °C 1016.8 in /  34428.8 hPa North 3.2 mph /  5.1 km/h 6.4 mph /  10.3 km/h 78 % 0.0 in /  0 mm
07:52 22.1 °F /  -5.5 °C 17.9 °F /  -7.8 °C 1016.8 in /  34428.8 hPa Calm   8.0 mph /  12.9 km/h 77 % 0.0 in /  0 mm
07:57 22.1 °F /  -5.5 °C 17.9 °F /  -7.8 °C 1016.8 in /  34428.8 hPa NNE 3.2 mph /  5.1 km/h 8.0 mph /  12.9 km/h 77 % 0.0 in /  0 mm
08:02 22.2 °F /  -5.4 °C 18.0 °F /  -7.8 °C 1016.8 in /  34428.8 hPa Calm   9.7 mph /  15.6 km/h 77 % 0.0 in /  0 mm
08:12 22.5 °F /  -5.3 °C 17.8 °F /  -7.9 °C 1017.2 in /  34442.4 hPa Calm   8.0 mph /  12.9 km/h 75 % 0.0 in /  0 mm
08:17 22.6 °F /  -5.2 °C 17.9 °F /  -7.8 °C 1017.2 in /  34442.4 hPa Calm   8.0 mph /  12.9 km/h 75 % 0.0 in /  0 mm
08:27 22.9 °F /  -5.1 °C 17.8 °F /  -7.9 °C 1017.2 in /  34442.4 hPa NNE 1.6 mph /  2.6 km/h 8.0 mph /  12.9 km/h 73 % 0.0 in /  0 mm
08:32 22.9 °F /  -5.1 °C 17.8 °F /  -7.9 °C 1017.2 in /  34442.4 hPa Calm   4.8 mph /  7.7 km/h 73 % 0.0 in /  0 mm
08:37 23.1 °F /  -4.9 °C 18.4 °F /  -7.6 °C 1017.5 in /  34452.6 hPa Calm   4.8 mph /  7.7 km/h 75 % 0.0 in /  0 mm
08:42 23.1 °F /  -4.9 °C 18.4 °F /  -7.6 °C 1017.5 in /  34452.6 hPa ENE 1.6 mph /  2.6 km/h 3.2 mph /  5.1 km/h 75 % 0.0 in /  0 mm
08:47 23.1 °F /  -4.9 °C 18.2 °F /  -7.7 °C 1017.5 in /  34452.6 hPa ENE 3.2 mph /  5.1 km/h 3.2 mph /  5.1 km/h 74 % 0.0 in /  0 mm
08:57 22.9 °F /  -5.1 °C 18.2 °F /  -7.7 °C 1017.5 in /  34452.6 hPa North 6.4 mph /  10.3 km/h 6.4 mph /  10.3 km/h 75 % 0.0 in /  0 mm
09:02 23.2 °F /  -4.9 °C 18.5 °F /  -7.5 °C 1017.5 in /  34452.6 hPa NNE 6.4 mph /  10.3 km/h 11.3 mph /  18.2 km/h 75 % 0.0 in /  0 mm
09:12 23.4 °F /  -4.8 °C 18.3 °F /  -7.6 °C 1017.5 in /  34452.6 hPa NNE 4.8 mph /  7.7 km/h 12.9 mph /  20.8 km/h 73 % 0.0 in /  0 mm
09:17 23.6 °F /  -4.7 °C 18.5 °F /  -7.5 °C 1017.5 in /  34452.6 hPa ENE 6.4 mph /  10.3 km/h 12.9 mph /  20.8 km/h 73 % 0.0 in /  0 mm
09:22 23.7 °F /  -4.6 °C 18.6 °F /  -7.4 °C 1017.5 in /  34452.6 hPa NE 4.8 mph /  7.7 km/h 12.9 mph /  20.8 km/h 73 % 0.0 in /  0 mm
09:27 24.1 °F /  -4.4 °C 18.5 °F /  -7.5 °C 1017.8 in /  34462.7 hPa North 4.8 mph /  7.7 km/h 12.9 mph /  20.8 km/h 71 % 0.0 in /  0 mm
09:32 24.3 °F /  -4.3 °C 18.7 °F /  -7.4 °C 1017.8 in /  34462.7 hPa NNW 1.6 mph /  2.6 km/h 11.3 mph /  18.2 km/h 71 % 0.0 in /  0 mm
09:37 24.6 °F /  -4.1 °C 18.5 °F /  -7.5 °C 1017.8 in /  34462.7 hPa NE 4.8 mph /  7.7 km/h 11.3 mph /  18.2 km/h 69 % 0.0 in /  0 mm
09:42 24.8 °F /  -4 °C 18.5 °F /  -7.5 °C 1017.8 in /  34462.7 hPa NE 1.6 mph /  2.6 km/h 9.7 mph /  15.6 km/h 68 % 0.0 in /  0 mm
09:52 25.1 °F /  -3.8 °C 18.8 °F /  -7.3 °C 1017.8 in /  34462.7 hPa Calm   9.7 mph /  15.6 km/h 68 % 0.0 in /  0 mm
09:57 25.3 °F /  -3.7 °C 18.7 °F /  -7.4 °C 1017.8 in /  34462.7 hPa NE 4.8 mph /  7.7 km/h 9.7 mph /  15.6 km/h 67 % 0.0 in /  0 mm
10:02 25.2 °F /  -3.8 °C 18.6 °F /  -7.4 °C 1017.8 in /  34462.7 hPa NNE 3.2 mph /  5.1 km/h 9.7 mph /  15.6 km/h 67 % 0.0 in /  0 mm
10:12 25.3 °F /  -3.7 °C 18.7 °F /  -7.4 °C 1017.8 in /  34462.7 hPa East 3.2 mph /  5.1 km/h 6.4 mph /  10.3 km/h 67 % 0.0 in /  0 mm
10:17 25.5 °F /  -3.6 °C 18.9 °F /  -7.3 °C 1017.8 in /  34462.7 hPa Calm   6.4 mph /  10.3 km/h 67 % 0.0 in /  0 mm
10:27 26.1 °F /  -3.3 °C 19.0 °F /  -7.2 °C 1017.8 in /  34462.7 hPa Calm   8.0 mph /  12.9 km/h 65 % 0.0 in /  0 mm
10:32 26.6 °F /  -3 °C 19.2 °F /  -7.1 °C 1017.8 in /  34462.7 hPa Calm   6.4 mph /  10.3 km/h 64 % 0.0 in /  0 mm
10:42 26.5 °F /  -3.1 °C 18.9 °F /  -7.3 °C 1017.8 in /  34462.7 hPa East 3.2 mph /  5.1 km/h 11.3 mph /  18.2 km/h 63 % 0.0 in /  0 mm
10:47 26.7 °F /  -2.9 °C 19.1 °F /  -7.2 °C 1017.8 in /  34462.7 hPa ENE 6.4 mph /  10.3 km/h 11.3 mph /  18.2 km/h 63 % 0.0 in /  0 mm
10:52 26.7 °F /  -2.9 °C 18.8 °F /  -7.3 °C 1017.8 in /  34462.7 hPa East 4.8 mph /  7.7 km/h 11.3 mph /  18.2 km/h 62 % 0.0 in /  0 mm
10:57 26.9 °F /  -2.8 °C 19.3 °F /  -7.1 °C 1017.8 in /  34462.7 hPa North 4.8 mph /  7.7 km/h 11.3 mph /  18.2 km/h 63 % 0.0 in /  0 mm
11:02 26.8 °F /  -2.9 °C 19.2 °F /  -7.1 °C 1017.8 in /  34462.7 hPa North 8.0 mph /  12.9 km/h 11.3 mph /  18.2 km/h 63 % 0.0 in /  0 mm
11:12 27.2 °F /  -2.7 °C 19.3 °F /  -7.1 °C 1017.8 in /  34462.7 hPa ENE 3.2 mph /  5.1 km/h 14.5 mph /  23.3 km/h 62 % 0.0 in /  0 mm
11:17 27.3 °F /  -2.6 °C 19.4 °F /  -7 °C 1017.8 in /  34462.7 hPa NE 8.0 mph /  12.9 km/h 14.5 mph /  23.3 km/h 62 % 0.0 in /  0 mm
11:22 27.4 °F /  -2.6 °C 19.2 °F /  -7.1 °C 1017.8 in /  34462.7 hPa NE 8.0 mph /  12.9 km/h 12.9 mph /  20.8 km/h 61 % 0.0 in /  0 mm
11:27 27.6 °F /  -2.4 °C 19.7 °F /  -6.8 °C 1017.8 in /  34462.7 hPa ENE 6.4 mph /  10.3 km/h 12.9 mph /  20.8 km/h 62 % 0.0 in /  0 mm
11:32 28.0 °F /  -2.2 °C 19.8 °F /  -6.8 °C 1017.8 in /  34462.7 hPa NE 1.6 mph /  2.6 km/h 11.3 mph /  18.2 km/h 61 % 0.0 in /  0 mm
11:42 28.3 °F /  -2.1 °C 18.7 °F /  -7.4 °C 1017.8 in /  34462.7 hPa NE 3.2 mph /  5.1 km/h 14.5 mph /  23.3 km/h 56 % 0.0 in /  0 mm
11:47 28.4 °F /  -2 °C 18.8 °F /  -7.3 °C 1017.8 in /  34462.7 hPa ENE 6.4 mph /  10.3 km/h 14.5 mph /  23.3 km/h 56 % 0.0 in /  0 mm
11:52 28.5 °F /  -1.9 °C 18.9 °F /  -7.3 °C 1017.8 in /  34462.7 hPa NNE 6.4 mph /  10.3 km/h 14.5 mph /  23.3 km/h 56 % 0.0 in /  0 mm
11:57 28.8 °F /  -1.8 °C 18.9 °F /  -7.3 °C 1017.8 in /  34462.7 hPa NNE 8.0 mph /  12.9 km/h 14.5 mph /  23.3 km/h 55 % 0.0 in /  0 mm
12:02 29.1 °F /  -1.6 °C 19.1 °F /  -7.2 °C 1017.8 in /  34462.7 hPa ENE 12.9 mph /  20.8 km/h 16.1 mph /  25.9 km/h 55 % 0.0 in /  0 mm
12:12 29.2 °F /  -1.6 °C 18.9 °F /  -7.3 °C 1017.8 in /  34462.7 hPa NE 9.7 mph /  15.6 km/h 16.1 mph /  25.9 km/h 54 % 0.0 in /  0 mm
12:17 29.1 °F /  -1.6 °C 18.8 °F /  -7.3 °C 1017.8 in /  34462.7 hPa NNE 11.3 mph /  18.2 km/h 16.1 mph /  25.9 km/h 54 % 0.0 in /  0 mm
12:22 29.1 °F /  -1.6 °C 19.1 °F /  -7.2 °C 1017.8 in /  34462.7 hPa East 4.8 mph /  7.7 km/h 19.3 mph /  31.1 km/h 55 % 0.0 in /  0 mm
12:32 29.2 °F /  -1.6 °C 18.6 °F /  -7.4 °C 1017.8 in /  34462.7 hPa ENE 8.0 mph /  12.9 km/h 19.3 mph /  31.1 km/h 53 % 0.0 in /  0 mm
12:37 29.2 °F /  -1.6 °C 18.9 °F /  -7.3 °C 1017.5 in /  34452.6 hPa NE 3.2 mph /  5.1 km/h 12.9 mph /  20.8 km/h 54 % 0.0 in /  0 mm
12:42 29.7 °F /  -1.3 °C 19.1 °F /  -7.2 °C 1017.5 in /  34452.6 hPa NE 6.4 mph /  10.3 km/h 12.9 mph /  20.8 km/h 53 % 0.0 in /  0 mm
12:47 30.0 °F /  -1.1 °C 19.4 °F /  -7 °C 1017.5 in /  34452.6 hPa NNW 8.0 mph /  12.9 km/h 12.9 mph /  20.8 km/h 53 % 0.0 in /  0 mm
12:52 30.2 °F /  -1 °C 19.3 °F /  -7.1 °C 1017.5 in /  34452.6 hPa North 9.7 mph /  15.6 km/h 16.1 mph /  25.9 km/h 52 % 0.0 in /  0 mm
13:02 30.3 °F /  -0.9 °C 19.0 °F /  -7.2 °C 1017.5 in /  34452.6 hPa NNE 12.9 mph /  20.8 km/h 16.1 mph /  25.9 km/h 51 % 0.0 in /  0 mm
13:12 30.7 °F /  -0.7 °C 19.1 °F /  -7.2 °C 1017.5 in /  34452.6 hPa NNE 11.3 mph /  18.2 km/h 19.3 mph /  31.1 km/h 50 % 0.0 in /  0 mm
13:17 30.7 °F /  -0.7 °C 18.4 °F /  -7.6 °C 1017.5 in /  34452.6 hPa NNE 9.7 mph /  15.6 km/h 19.3 mph /  31.1 km/h 48 % 0.0 in /  0 mm
13:22 30.5 °F /  -0.8 °C 18.9 °F /  -7.3 °C 1017.2 in /  34442.4 hPa East 3.2 mph /  5.1 km/h 17.7 mph /  28.5 km/h 50 % 0.0 in /  0 mm
13:32 30.6 °F /  -0.8 °C 19.0 °F /  -7.2 °C 1017.2 in /  34442.4 hPa ENE 8.0 mph /  12.9 km/h 16.1 mph /  25.9 km/h 50 % 0.0 in /  0 mm
13:42 30.4 °F /  -0.9 °C 18.8 °F /  -7.3 °C 1017.2 in /  34442.4 hPa NE 11.3 mph /  18.2 km/h 14.5 mph /  23.3 km/h 50 % 0.0 in /  0 mm
13:52 30.5 °F /  -0.8 °C 18.9 °F /  -7.3 °C 1017.2 in /  34442.4 hPa ENE 8.0 mph /  12.9 km/h 11.3 mph /  18.2 km/h 50 % 0.0 in /  0 mm
13:57 30.6 °F /  -0.8 °C 18.7 °F /  -7.4 °C 1017.2 in /  34442.4 hPa ENE 8.0 mph /  12.9 km/h 11.3 mph /  18.2 km/h 49 % 0.0 in /  0 mm
14:02 30.6 °F /  -0.8 °C 18.7 °F /  -7.4 °C 1017.2 in /  34442.4 hPa NE 11.3 mph /  18.2 km/h 12.9 mph /  20.8 km/h 49 % 0.0 in /  0 mm
14:12 30.6 °F /  -0.8 °C 18.0 °F /  -7.8 °C 1017.2 in /  34442.4 hPa NE 9.7 mph /  15.6 km/h 12.9 mph /  20.8 km/h 47 % 0.0 in /  0 mm
14:17 30.7 °F /  -0.7 °C 18.4 °F /  -7.6 °C 1017.2 in /  34442.4 hPa North 6.4 mph /  10.3 km/h 12.9 mph /  20.8 km/h 48 % 0.0 in /  0 mm
14:22 30.7 °F /  -0.7 °C 18.1 °F /  -7.7 °C 1017.2 in /  34442.4 hPa NNE 11.3 mph /  18.2 km/h 12.9 mph /  20.8 km/h 47 % 0.0 in /  0 mm
14:27 30.6 °F /  -0.8 °C 18.3 °F /  -7.6 °C 1016.8 in /  34428.8 hPa NE 3.2 mph /  5.1 km/h 12.9 mph /  20.8 km/h 48 % 0.0 in /  0 mm
14:32 30.8 °F /  -0.7 °C 18.2 °F /  -7.7 °C 1016.8 in /  34428.8 hPa NE 11.3 mph /  18.2 km/h 14.5 mph /  23.3 km/h 47 % 0.0 in /  0 mm
14:37 30.9 °F /  -0.6 °C 17.9 °F /  -7.8 °C 1016.8 in /  34428.8 hPa NNE 11.3 mph /  18.2 km/h 14.5 mph /  23.3 km/h 46 % 0.0 in /  0 mm
14:42 31.2 °F /  -0.4 °C 18.2 °F /  -7.7 °C 1016.8 in /  34428.8 hPa NE 11.3 mph /  18.2 km/h 16.1 mph /  25.9 km/h 46 % 0.0 in /  0 mm
14:47 31.5 °F /  -0.3 °C 18.1 °F /  -7.7 °C 1016.8 in /  34428.8 hPa NNE 14.5 mph /  23.3 km/h 16.1 mph /  25.9 km/h 45 % 0.0 in /  0 mm
14:52 31.7 °F /  -0.2 °C 17.9 °F /  -7.8 °C 1016.8 in /  34428.8 hPa NNE 3.2 mph /  5.1 km/h 16.1 mph /  25.9 km/h 44 % 0.0 in /  0 mm
15:02 31.9 °F /  -0.1 °C 17.4 °F /  -8.1 °C 1016.8 in /  34428.8 hPa NNE 6.4 mph /  10.3 km/h 16.1 mph /  25.9 km/h 42 % 0.0 in /  0 mm
15:07 31.9 °F /  -0.1 °C 18.1 °F /  -7.7 °C 1016.5 in /  34418.7 hPa NNE 8.0 mph /  12.9 km/h 16.1 mph /  25.9 km/h 44 % 0.0 in /  0 mm
15:12 32.1 °F /  0.1 °C 17.9 °F /  -7.8 °C 1016.5 in /  34418.7 hPa East 6.4 mph /  10.3 km/h 16.1 mph /  25.9 km/h 43 % 0.0 in /  0 mm
15:17 32.0 °F /  0 °C 17.9 °F /  -7.8 °C 1016.5 in /  34418.7 hPa NNE 11.3 mph /  18.2 km/h 16.1 mph /  25.9 km/h 43 % 0.0 in /  0 mm
15:22 32.0 °F /  0 °C 18.9 °F /  -7.3 °C 1016.5 in /  34418.7 hPa NNE 8.0 mph /  12.9 km/h 20.9 mph /  33.6 km/h 46 % 0.0 in /  0 mm
15:32 32.1 °F /  0.1 °C 18.3 °F /  -7.6 °C 1016.1 in /  34405.1 hPa NNW 8.0 mph /  12.9 km/h 17.7 mph /  28.5 km/h 44 % 0.0 in /  0 mm
15:37 32.3 °F /  0.2 °C 18.8 °F /  -7.3 °C 1016.1 in /  34405.1 hPa NE 16.1 mph /  25.9 km/h 17.7 mph /  28.5 km/h 45 % 0.0 in /  0 mm
15:42 32.4 °F /  0.2 °C 17.8 °F /  -7.9 °C 1016.1 in /  34405.1 hPa NNE 6.4 mph /  10.3 km/h 17.7 mph /  28.5 km/h 42 % 0.0 in /  0 mm
15:47 31.9 °F /  -0.1 °C 18.5 °F /  -7.5 °C 1016.1 in /  34405.1 hPa NE 9.7 mph /  15.6 km/h 20.9 mph /  33.6 km/h 45 % 0.0 in /  0 mm
15:52 31.9 °F /  -0.1 °C 19.2 °F /  -7.1 °C 1016.1 in /  34405.1 hPa ENE 8.0 mph /  12.9 km/h 20.9 mph /  33.6 km/h 47 % 0.0 in /  0 mm
16:02 31.9 °F /  -0.1 °C 19.2 °F /  -7.1 °C 1016.1 in /  34405.1 hPa NE 8.0 mph /  12.9 km/h 20.9 mph /  33.6 km/h 47 % 0.0 in /  0 mm
16:12 31.9 °F /  -0.1 °C 18.5 °F /  -7.5 °C 1016.1 in /  34405.1 hPa NE 14.5 mph /  23.3 km/h 19.3 mph /  31.1 km/h 45 % 0.0 in /  0 mm
16:17 31.8 °F /  -0.1 °C 18.7 °F /  -7.4 °C 1016.1 in /  34405.1 hPa North 12.9 mph /  20.8 km/h 22.5 mph /  36.2 km/h 46 % 0.0 in /  0 mm
16:27 32.1 °F /  0.1 °C 18.3 °F /  -7.6 °C 1016.1 in /  34405.1 hPa NNE 3.2 mph /  5.1 km/h 19.3 mph /  31.1 km/h 44 % 0.0 in /  0 mm
16:32 32.0 °F /  0 °C 18.9 °F /  -7.3 °C 1015.8 in /  34395 hPa ENE 14.5 mph /  23.3 km/h 19.3 mph /  31.1 km/h 46 % 0.0 in /  0 mm
16:37 32.1 °F /  0.1 °C 18.7 °F /  -7.4 °C 1015.8 in /  34395 hPa WNW 8.0 mph /  12.9 km/h 20.9 mph /  33.6 km/h 45 % 0.0 in /  0 mm
16:47 31.7 °F /  -0.2 °C 18.7 °F /  -7.4 °C 1015.8 in /  34395 hPa NNE 6.4 mph /  10.3 km/h 20.9 mph /  33.6 km/h 46 % 0.0 in /  0 mm
16:52 31.7 °F /  -0.2 °C 18.7 °F /  -7.4 °C 1015.8 in /  34395 hPa NNW 6.4 mph /  10.3 km/h 20.9 mph /  33.6 km/h 46 % 0.0 in /  0 mm
16:57 31.8 °F /  -0.1 °C 18.7 °F /  -7.4 °C 1015.8 in /  34395 hPa ENE 11.3 mph /  18.2 km/h 17.7 mph /  28.5 km/h 46 % 0.0 in /  0 mm
17:02 31.8 °F /  -0.1 °C 18.7 °F /  -7.4 °C 1015.8 in /  34395 hPa NE 12.9 mph /  20.8 km/h 17.7 mph /  28.5 km/h 46 % 0.0 in /  0 mm
17:12 32.2 °F /  0.1 °C 18.8 °F /  -7.3 °C 1015.5 in /  34384.8 hPa NNE 9.7 mph /  15.6 km/h 19.3 mph /  31.1 km/h 45 % 0.0 in /  0 mm
17:17 32.2 °F /  0.1 °C 18.8 °F /  -7.3 °C 1015.8 in /  34395 hPa NNE 9.7 mph /  15.6 km/h 22.5 mph /  36.2 km/h 45 % 0.0 in /  0 mm
17:22 32.3 °F /  0.2 °C 18.8 °F /  -7.3 °C 1015.5 in /  34384.8 hPa NE 12.9 mph /  20.8 km/h 22.5 mph /  36.2 km/h 45 % 0.0 in /  0 mm
17:27 32.2 °F /  0.1 °C 18.4 °F /  -7.6 °C 1015.5 in /  34384.8 hPa NW 1.6 mph /  2.6 km/h 22.5 mph /  36.2 km/h 44 % 0.0 in /  0 mm
17:32 32.1 °F /  0.1 °C 18.7 °F /  -7.4 °C 1015.5 in /  34384.8 hPa NE 9.7 mph /  15.6 km/h 22.5 mph /  36.2 km/h 45 % 0.0 in /  0 mm
17:37 32.2 °F /  0.1 °C 18.4 °F /  -7.6 °C 1015.5 in /  34384.8 hPa North 8.0 mph /  12.9 km/h 20.9 mph /  33.6 km/h 44 % 0.0 in /  0 mm
17:42 32.3 °F /  0.2 °C 18.5 °F /  -7.5 °C 1015.5 in /  34384.8 hPa NNW 6.4 mph /  10.3 km/h 20.9 mph /  33.6 km/h 44 % 0.0 in /  0 mm
17:47 32.2 °F /  0.1 °C 18.4 °F /  -7.6 °C 1015.5 in /  34384.8 hPa NE 12.9 mph /  20.8 km/h 20.9 mph /  33.6 km/h 44 % 0.0 in /  0 mm
17:52 32.2 °F /  0.1 °C 18.4 °F /  -7.6 °C 1015.5 in /  34384.8 hPa North 9.7 mph /  15.6 km/h 19.3 mph /  31.1 km/h 44 % 0.0 in /  0 mm
17:57 32.2 °F /  0.1 °C 18.4 °F /  -7.6 °C 1015.5 in /  34384.8 hPa NNW 8.0 mph /  12.9 km/h 19.3 mph /  31.1 km/h 44 % 0.0 in /  0 mm
18:02 31.9 °F /  -0.1 °C 18.1 °F /  -7.7 °C 1015.5 in /  34384.8 hPa NNE 9.7 mph /  15.6 km/h 19.3 mph /  31.1 km/h 44 % 0.0 in /  0 mm
18:12 31.9 °F /  -0.1 °C 18.1 °F /  -7.7 °C 1015.5 in /  34384.8 hPa NE 11.3 mph /  18.2 km/h 17.7 mph /  28.5 km/h 44 % 0.0 in /  0 mm
18:17 31.8 °F /  -0.1 °C 18.4 °F /  -7.6 °C 1015.5 in /  34384.8 hPa ENE 6.4 mph /  10.3 km/h 19.3 mph /  31.1 km/h 45 % 0.0 in /  0 mm
18:22 31.8 °F /  -0.1 °C 18.4 °F /  -7.6 °C 1015.5 in /  34384.8 hPa ENE 6.4 mph /  10.3 km/h 19.3 mph /  31.1 km/h 45 % 0.0 in /  0 mm
18:27 31.8 °F /  -0.1 °C 18.0 °F /  -7.8 °C 1015.5 in /  34384.8 hPa NE 9.7 mph /  15.6 km/h 17.7 mph /  28.5 km/h 44 % 0.0 in /  0 mm
18:32 31.7 °F /  -0.2 °C 17.9 °F /  -7.8 °C 1015.5 in /  34384.8 hPa NNW 8.0 mph /  12.9 km/h 17.7 mph /  28.5 km/h 44 % 0.0 in /  0 mm
18:42 31.6 °F /  -0.2 °C 17.5 °F /  -8.1 °C 1015.5 in /  34384.8 hPa NNE 9.7 mph /  15.6 km/h 17.7 mph /  28.5 km/h 43 % 0.0 in /  0 mm
18:52 31.5 °F /  -0.3 °C 17.0 °F /  -8.3 °C 1015.5 in /  34384.8 hPa NNE 11.3 mph /  18.2 km/h 17.7 mph /  28.5 km/h 42 % 0.0 in /  0 mm
18:57 31.3 °F /  -0.4 °C 17.2 °F /  -8.2 °C 1015.5 in /  34384.8 hPa North 9.7 mph /  15.6 km/h 17.7 mph /  28.5 km/h 43 % 0.0 in /  0 mm
19:02 31.1 °F /  -0.5 °C 17.0 °F /  -8.3 °C 1015.5 in /  34384.8 hPa NE 4.8 mph /  7.7 km/h 14.5 mph /  23.3 km/h 43 % 0.0 in /  0 mm
19:12 30.9 °F /  -0.6 °C 17.2 °F /  -8.2 °C 1015.5 in /  34384.8 hPa NE 4.8 mph /  7.7 km/h 19.3 mph /  31.1 km/h 44 % 0.0 in /  0 mm
19:17 30.8 °F /  -0.7 °C 17.1 °F /  -8.3 °C 1015.5 in /  34384.8 hPa NNW 3.2 mph /  5.1 km/h 19.3 mph /  31.1 km/h 44 % 0.0 in /  0 mm
19:22 30.7 °F /  -0.7 °C 17.0 °F /  -8.3 °C 1015.5 in /  34384.8 hPa NNE 3.2 mph /  5.1 km/h 16.1 mph /  25.9 km/h 44 % 0.0 in /  0 mm
19:32 30.5 °F /  -0.8 °C 17.6 °F /  -8 °C 1015.5 in /  34384.8 hPa NE 9.7 mph /  15.6 km/h 16.1 mph /  25.9 km/h 46 % 0.0 in /  0 mm
19:37 30.3 °F /  -0.9 °C 17.4 °F /  -8.1 °C 1015.5 in /  34384.8 hPa NE 3.2 mph /  5.1 km/h 16.1 mph /  25.9 km/h 46 % 0.0 in /  0 mm
19:42 30.2 °F /  -1 °C 17.6 °F /  -8 °C 1015.5 in /  34384.8 hPa NNE 8.0 mph /  12.9 km/h 16.1 mph /  25.9 km/h 47 % 0.0 in /  0 mm
19:47 30.0 °F /  -1.1 °C 17.8 °F /  -7.9 °C 1015.5 in /  34384.8 hPa NNE 8.0 mph /  12.9 km/h 16.1 mph /  25.9 km/h 48 % 0.0 in /  0 mm
19:52 29.8 °F /  -1.2 °C 17.6 °F /  -8 °C 1015.5 in /  34384.8 hPa NE 6.4 mph /  10.3 km/h 16.1 mph /  25.9 km/h 48 % 0.0 in /  0 mm
19:57 29.6 °F /  -1.3 °C 17.8 °F /  -7.9 °C 1015.5 in /  34384.8 hPa NNE 3.2 mph /  5.1 km/h 16.1 mph /  25.9 km/h 49 % 0.0 in /  0 mm
20:02 29.3 °F /  -1.5 °C 17.5 °F /  -8.1 °C 1015.5 in /  34384.8 hPa North 12.9 mph /  20.8 km/h 16.1 mph /  25.9 km/h 49 % 0.0 in /  0 mm
20:12 28.9 °F /  -1.7 °C 17.1 °F /  -8.3 °C 1015.5 in /  34384.8 hPa NE 1.6 mph /  2.6 km/h 17.7 mph /  28.5 km/h 49 % 0.0 in /  0 mm
20:17 28.7 °F /  -1.8 °C 17.2 °F /  -8.2 °C 1015.5 in /  34384.8 hPa ENE 1.6 mph /  2.6 km/h 17.7 mph /  28.5 km/h 50 % 0.0 in /  0 mm
20:22 28.6 °F /  -1.9 °C 17.2 °F /  -8.2 °C 1015.5 in /  34384.8 hPa NNE 8.0 mph /  12.9 km/h 17.7 mph /  28.5 km/h 50 % 0.0 in /  0 mm
20:32 28.2 °F /  -2.1 °C 17.1 °F /  -8.3 °C 1015.8 in /  34395 hPa NNE 6.4 mph /  10.3 km/h 19.3 mph /  31.1 km/h 51 % 0.0 in /  0 mm
20:37 28.1 °F /  -2.2 °C 17.0 °F /  -8.3 °C 1015.8 in /  34395 hPa NNE 4.8 mph /  7.7 km/h 19.3 mph /  31.1 km/h 51 % 0.0 in /  0 mm
20:42 27.9 °F /  -2.3 °C 16.8 °F /  -8.4 °C 1015.8 in /  34395 hPa NE 6.4 mph /  10.3 km/h 14.5 mph /  23.3 km/h 51 % 0.0 in /  0 mm
20:47 27.8 °F /  -2.3 °C 16.7 °F /  -8.5 °C 1015.8 in /  34395 hPa ENE 9.7 mph /  15.6 km/h 14.5 mph /  23.3 km/h 51 % 0.0 in /  0 mm
20:52 27.7 °F /  -2.4 °C 16.6 °F /  -8.6 °C 1015.8 in /  34395 hPa NNE 4.8 mph /  7.7 km/h 16.1 mph /  25.9 km/h 51 % 0.0 in /  0 mm
21:12 27.2 °F /  -2.7 °C 16.5 °F /  -8.6 °C 1015.8 in /  34395 hPa NE 6.4 mph /  10.3 km/h 14.5 mph /  23.3 km/h 52 % 0.0 in /  0 mm
21:17 27.1 °F /  -2.7 °C 16.4 °F /  -8.7 °C 1015.8 in /  34395 hPa NNE 9.7 mph /  15.6 km/h 16.1 mph /  25.9 km/h 52 % 0.0 in /  0 mm
21:22 27.1 °F /  -2.7 °C 16.7 °F /  -8.5 °C 1015.8 in /  34395 hPa NNE 9.7 mph /  15.6 km/h 16.1 mph /  25.9 km/h 53 % 0.0 in /  0 mm
21:27 27.0 °F /  -2.8 °C 16.6 °F /  -8.6 °C 1015.8 in /  34395 hPa ENE 4.8 mph /  7.7 km/h 16.1 mph /  25.9 km/h 53 % 0.0 in /  0 mm
21:32 26.9 °F /  -2.8 °C 16.8 °F /  -8.4 °C 1015.8 in /  34395 hPa ENE 3.2 mph /  5.1 km/h 17.7 mph /  28.5 km/h 54 % 0.0 in /  0 mm
21:37 26.9 °F /  -2.8 °C 16.8 °F /  -8.4 °C 1016.1 in /  34405.1 hPa NNE 11.3 mph /  18.2 km/h 17.7 mph /  28.5 km/h 54 % 0.0 in /  0 mm
21:42 26.8 °F /  -2.9 °C 16.7 °F /  -8.5 °C 1016.1 in /  34405.1 hPa NNE 9.7 mph /  15.6 km/h 17.7 mph /  28.5 km/h 54 % 0.0 in /  0 mm
21:47 26.7 °F /  -2.9 °C 16.9 °F /  -8.4 °C 1016.1 in /  34405.1 hPa NE 4.8 mph /  7.7 km/h 17.7 mph /  28.5 km/h 55 % 0.0 in /  0 mm
21:57 26.5 °F /  -3.1 °C 16.7 °F /  -8.5 °C 1016.1 in /  34405.1 hPa NE 6.4 mph /  10.3 km/h 17.7 mph /  28.5 km/h 55 % 0.0 in /  0 mm
22:02 26.3 °F /  -3.2 °C 16.8 °F /  -8.4 °C 1016.1 in /  34405.1 hPa ENE 3.2 mph /  5.1 km/h 17.7 mph /  28.5 km/h 56 % 0.0 in /  0 mm
22:12 26.1 °F /  -3.3 °C 16.9 °F /  -8.4 °C 1016.1 in /  34405.1 hPa NNE 4.8 mph /  7.7 km/h 17.7 mph /  28.5 km/h 57 % 0.0 in /  0 mm
22:17 25.9 °F /  -3.4 °C 16.7 °F /  -8.5 °C 1016.1 in /  34405.1 hPa NNE 9.7 mph /  15.6 km/h 16.1 mph /  25.9 km/h 57 % 0.0 in /  0 mm
22:22 25.9 °F /  -3.4 °C 16.7 °F /  -8.5 °C 1016.1 in /  34405.1 hPa NNW 6.4 mph /  10.3 km/h 16.1 mph /  25.9 km/h 57 % 0.0 in /  0 mm
22:32 25.8 °F /  -3.4 °C 16.6 °F /  -8.6 °C 1016.1 in /  34405.1 hPa NNE 8.0 mph /  12.9 km/h 16.1 mph /  25.9 km/h 57 % 0.0 in /  0 mm
22:37 25.8 °F /  -3.4 °C 16.9 °F /  -8.4 °C 1016.1 in /  34405.1 hPa NNE 9.7 mph /  15.6 km/h 14.5 mph /  23.3 km/h 58 % 0.0 in /  0 mm
22:47 25.6 °F /  -3.6 °C 16.7 °F /  -8.5 °C 1016.1 in /  34405.1 hPa NNE 6.4 mph /  10.3 km/h 14.5 mph /  23.3 km/h 58 % 0.0 in /  0 mm
22:52 25.4 °F /  -3.7 °C 16.8 °F /  -8.4 °C 1016.1 in /  34405.1 hPa NE 4.8 mph /  7.7 km/h 14.5 mph /  23.3 km/h 59 % 0.0 in /  0 mm
22:57 25.4 °F /  -3.7 °C 16.8 °F /  -8.4 °C 1016.1 in /  34405.1 hPa ENE 4.8 mph /  7.7 km/h 12.9 mph /  20.8 km/h 59 % 0.0 in /  0 mm
23:02 25.3 °F /  -3.7 °C 16.7 °F /  -8.5 °C 1016.1 in /  34405.1 hPa NNE 6.4 mph /  10.3 km/h 11.3 mph /  18.2 km/h 59 % 0.0 in /  0 mm
23:12 25.1 °F /  -3.8 °C 16.5 °F /  -8.6 °C 1016.1 in /  34405.1 hPa North 3.2 mph /  5.1 km/h 11.3 mph /  18.2 km/h 59 % 0.0 in /  0 mm
23:17 25.0 °F /  -3.9 °C 16.7 °F /  -8.5 °C 1016.1 in /  34405.1 hPa North 1.6 mph /  2.6 km/h 11.3 mph /  18.2 km/h 60 % 0.0 in /  0 mm
23:22 24.8 °F /  -4 °C 16.5 °F /  -8.6 °C 1016.5 in /  34418.7 hPa NE 6.4 mph /  10.3 km/h 9.7 mph /  15.6 km/h 60 % 0.0 in /  0 mm
23:27 24.8 °F /  -4 °C 16.5 °F /  -8.6 °C 1016.5 in /  34418.7 hPa NE 6.4 mph /  10.3 km/h 9.7 mph /  15.6 km/h 60 % 0.0 in /  0 mm
23:32 24.8 °F /  -4 °C 16.5 °F /  -8.6 °C 1016.1 in /  34405.1 hPa NE 3.2 mph /  5.1 km/h 8.0 mph /  12.9 km/h 60 % 0.0 in /  0 mm
23:37 24.7 °F /  -4.1 °C 16.4 °F /  -8.7 °C 1016.1 in /  34405.1 hPa North 1.6 mph /  2.6 km/h 9.7 mph /  15.6 km/h 60 % 0.0 in /  0 mm
23:42 24.6 °F /  -4.1 °C 16.3 °F /  -8.7 °C 1016.1 in /  34405.1 hPa NE 4.8 mph /  7.7 km/h 9.7 mph /  15.6 km/h 60 % 0.0 in /  0 mm
23:47 24.6 °F /  -4.1 °C 16.6 °F /  -8.6 °C 1016.1 in /  34405.1 hPa NE 3.2 mph /  5.1 km/h 12.9 mph /  20.8 km/h 61 % 0.0 in /  0 mm
23:52 24.6 °F /  -4.1 °C 16.6 °F /  -8.6 °C 1016.1 in /  34405.1 hPa NE 3.2 mph /  5.1 km/h 12.9 mph /  20.8 km/h 61 % 0.0 in /  0 mm
23:57 24.6 °F /  -4.1 °C 16.6 °F /  -8.6 °C 1016.1 in /  34405.1 hPa NE 3.2 mph /  5.1 km/h 12.9 mph /  20.8 km/h 61 % 0.0 in /  0 mm
Meteo18
Compliments of Weather Underground - 4 mb

Script developed by  Jim McMurry - jmcmurry@mwt.net Adapted for the template by  Wim van der Kuil - Leuven-Template.eu

You find our weather info also at:

European Weather Network

Weather Underground

Equipment we use:

Weather-station
Davis Vue

Weather-program
Meteobridge

Weather-server
Raspberry PI 2 B+

Provider
1 and 1

Davis Vue

Meteobridge

Raspberry PI 2 B+

1 and 1